createdAt,value
2018-12-25T00:17:08.855Z,52.10
2018-12-25T00:21:33.874Z,51.29
2018-12-25T00:25:52.115Z,54.87
2018-12-25T00:30:17.124Z,58.37
2018-12-25T00:34:34.740Z,53.60
2018-12-25T00:39:01.457Z,51.47
2018-12-25T00:43:19.064Z,50.86
2018-12-25T00:47:44.099Z,50.95
2018-12-25T00:52:01.571Z,50.74
2018-12-25T00:56:26.575Z,50.73
2018-12-25T01:00:44.563Z,50.20
2018-12-25T01:09:46.475Z,54.44
2018-12-25T01:14:04.758Z,54.75
2018-12-25T01:18:41.332Z,54.79
2018-12-25T01:23:06.396Z,52.93
2018-12-25T01:27:24.653Z,52.52
2018-12-25T01:31:49.767Z,52.37
2018-12-25T01:36:07.381Z,52.52
2018-12-25T01:40:32.471Z,52.58
2018-12-25T01:44:48.419Z,52.73
2018-12-25T01:49:13.569Z,54.45
2018-12-25T01:53:31.373Z,55.55
2018-12-25T02:02:31.391Z,63.55
2018-12-25T02:06:56.416Z,60.81
2018-12-25T02:11:02.194Z,62.87
2018-12-25T02:15:07.998Z,53.66
2018-12-25T02:19:13.664Z,58.23
2018-12-25T02:23:19.425Z,55.51
2018-12-25T02:27:25.123Z,54.94
2018-12-25T02:31:30.852Z,57.09
2018-12-25T02:35:36.510Z,59.12
2018-12-25T02:39:42.176Z,55.08
2018-12-25T02:43:47.868Z,57.90
2018-12-25T02:47:53.607Z,65.85
2018-12-25T02:51:59.332Z,60.91
2018-12-25T02:56:05.017Z,57.21
2018-12-25T03:00:10.728Z,60.34
2018-12-25T03:04:16.404Z,57.17
2018-12-25T03:08:22.156Z,56.58
2018-12-25T03:12:27.849Z,62.96
2018-12-25T03:16:33.545Z,57.09
2018-12-25T03:20:39.216Z,57.78
2018-12-25T03:24:44.992Z,58.73
2018-12-25T03:28:50.676Z,56.68
2018-12-25T03:32:56.413Z,62.12
2018-12-25T03:37:02.077Z,61.07
2018-12-25T03:41:07.775Z,57.80
2018-12-25T03:45:13.473Z,58.25
2018-12-25T03:49:19.153Z,58.96
2018-12-25T03:53:24.844Z,55.41
2018-12-25T03:57:30.515Z,59.50
2018-12-25T04:01:36.196Z,64.36
2018-12-25T04:11:49.923Z,60.43
2018-12-25T04:16:49.550Z,57.11
2018-12-25T04:20:55.275Z,58.86
2018-12-25T04:25:48.825Z,60.36
2018-12-25T04:29:54.486Z,61.95
2018-12-25T04:34:48.465Z,63.82
2018-12-25T04:38:54.178Z,57.16
2018-12-25T04:43:50.747Z,60.42
2018-12-25T04:47:56.434Z,56.13
2018-12-25T04:52:50.065Z,58.17
2018-12-25T04:56:55.748Z,62.35
2018-12-25T05:01:49.395Z,64.35
2018-12-25T05:05:55.059Z,58.94
2018-12-25T05:10:48.973Z,56.39
2018-12-25T05:14:54.658Z,53.69
2018-12-25T05:19:48.401Z,51.34
2018-12-25T05:23:54.174Z,52.21
2018-12-25T05:28:47.765Z,52.50
2018-12-25T05:32:53.452Z,52.25
2018-12-25T05:37:50.304Z,52.99
2018-12-25T05:42:07.957Z,52.91
2018-12-25T05:46:25.524Z,52.89
2018-12-25T05:50:50.637Z,52.95
2018-12-25T05:55:08.174Z,55.38
2018-12-25T05:59:52.534Z,59.40
2018-12-25T06:04:08.658Z,58.11
2018-12-25T06:08:52.994Z,57.81
2018-12-25T06:13:29.736Z,59.37
2018-12-25T06:17:50.209Z,57.76
2018-12-25T06:22:15.240Z,60.00
2018-12-25T06:26:52.681Z,58.14
2018-12-25T06:31:10.264Z,57.79
2018-12-25T06:35:50.190Z,64.41
2018-12-25T06:39:55.861Z,62.16
2018-12-25T06:44:01.552Z,55.84
2018-12-25T06:49:05.205Z,58.05
2018-12-25T06:53:48.139Z,57.31
2018-12-25T06:58:13.174Z,57.30
2018-12-25T07:02:50.165Z,57.15
2018-12-25T07:22:03.695Z,60.66
2018-12-25T07:26:49.239Z,57.86
2018-12-25T07:31:14.302Z,58.92
2018-12-25T07:35:51.519Z,56.48
2018-12-25T07:40:16.540Z,60.58
2018-12-25T07:44:53.365Z,62.10
2018-12-25T07:49:18.399Z,55.15
2018-12-25T07:53:55.551Z,56.79
2018-12-25T07:58:13.768Z,62.48
2018-12-25T08:02:51.256Z,57.71
2018-12-25T08:07:16.288Z,53.43
2018-12-25T08:11:53.705Z,61.60
2018-12-25T09:59:47.832Z,52.52
2018-12-25T10:16:47.038Z,51.07
2018-12-25T10:56:46.873Z,50.43
2018-12-25T11:07:48.447Z,49.10
2018-12-25T11:29:47.682Z,51.00
2018-12-25T11:34:46.865Z,50.79
2018-12-25T11:51:46.991Z,49.69
2018-12-25T12:02:50.908Z,45.81
2018-12-25T12:31:38.099Z,49.48
2018-12-25T12:35:54.250Z,49.08
2018-12-25T12:40:12.156Z,50.15
2018-12-25T12:49:39.869Z,49.26
2018-12-25T12:53:57.535Z,48.96
2018-12-25T13:03:17.469Z,48.84
2018-12-25T13:07:35.061Z,49.13
2018-12-25T13:11:52.704Z,48.48
2018-12-25T13:16:17.721Z,48.32
2018-12-25T13:20:35.767Z,48.85
2018-12-25T13:34:27.003Z,49.56
2018-12-25T13:43:34.697Z,51.32
2018-12-25T13:47:59.764Z,51.83
2018-12-25T13:52:19.530Z,51.44
2018-12-25T13:56:44.568Z,50.89
2018-12-25T14:01:02.414Z,50.44
2018-12-25T14:05:27.431Z,51.41
2018-12-25T14:09:45.432Z,51.55
2018-12-25T14:18:47.168Z,50.96
2018-12-25T14:23:11.229Z,51.38
2018-12-25T14:27:32.191Z,50.91
2018-12-25T14:31:49.995Z,52.85
2018-12-25T14:40:51.416Z,51.61
2018-12-25T14:45:09.385Z,51.89
2018-12-25T14:49:15.043Z,52.78
2018-12-25T14:53:20.720Z,53.29
2018-12-25T14:57:27.935Z,52.75
2018-12-25T15:01:33.641Z,52.44
2018-12-25T15:05:39.306Z,53.56
2018-12-25T15:09:45.010Z,53.72
2018-12-25T15:13:50.706Z,54.09
2018-12-25T15:17:56.393Z,53.49
2018-12-25T15:22:02.079Z,53.30
2018-12-25T15:26:07.768Z,53.08
2018-12-25T15:30:13.467Z,52.05
2018-12-25T15:34:19.170Z,53.15
2018-12-25T15:38:24.842Z,53.23
2018-12-25T15:42:30.521Z,53.62
2018-12-25T15:46:36.209Z,52.51
2018-12-25T15:50:41.906Z,53.34
2018-12-25T15:54:47.597Z,53.11
2018-12-25T15:58:53.337Z,53.37
2018-12-25T16:02:59.085Z,52.78
2018-12-25T16:07:04.874Z,53.23
2018-12-25T16:11:10.565Z,51.66
2018-12-25T16:15:16.260Z,52.30
2018-12-25T16:19:21.931Z,51.99
2018-12-25T16:23:27.617Z,51.55
2018-12-25T16:27:33.313Z,51.98
2018-12-25T16:31:39.028Z,51.74
2018-12-25T16:35:44.824Z,52.77
2018-12-25T16:39:50.578Z,53.07
2018-12-25T16:43:56.288Z,54.07
2018-12-25T16:48:02.004Z,53.34
2018-12-25T16:52:07.665Z,52.35
2018-12-25T16:56:13.361Z,51.87
2018-12-25T17:00:19.040Z,52.61
2018-12-25T17:04:24.729Z,52.77
2018-12-25T17:08:30.428Z,53.04
2018-12-25T17:12:36.104Z,52.82
2018-12-25T17:16:41.799Z,52.41
2018-12-25T17:20:47.543Z,51.89
2018-12-25T17:24:53.252Z,52.54
2018-12-25T17:29:50.239Z,52.80
2018-12-25T17:33:55.939Z,54.46
2018-12-25T17:38:02.605Z,53.57
2018-12-25T17:42:08.294Z,53.84
2018-12-25T17:46:14.037Z,53.16
2018-12-25T17:50:19.759Z,51.76
2018-12-25T17:54:25.436Z,54.30
2018-12-25T17:58:31.151Z,54.59
2018-12-25T18:02:36.835Z,54.27
2018-12-25T18:06:42.535Z,54.46
2018-12-25T18:10:48.226Z,53.84
2018-12-25T18:14:53.986Z,53.52
2018-12-25T18:18:59.636Z,53.09
2018-12-25T18:23:05.306Z,52.78
2018-12-25T18:27:11.003Z,53.77
2018-12-25T18:31:16.698Z,53.88
2018-12-25T18:35:22.454Z,52.97
2018-12-25T18:39:28.141Z,54.32
2018-12-25T18:43:33.812Z,55.59
2018-12-25T18:47:39.505Z,56.28
2018-12-25T18:51:45.214Z,56.46
2018-12-25T18:55:50.974Z,56.66
2018-12-25T18:59:56.636Z,56.23
2018-12-25T19:04:03.380Z,55.24
2018-12-25T19:08:09.133Z,53.65
2018-12-25T19:12:15.794Z,54.01
2018-12-25T19:16:21.488Z,54.78
2018-12-25T19:20:27.237Z,56.23
2018-12-25T19:24:36.381Z,55.01
2018-12-25T19:28:40.329Z,54.94
2018-12-25T19:32:47.021Z,54.15
2018-12-25T19:36:52.795Z,53.73
2018-12-25T19:40:58.490Z,54.34
2018-12-25T19:45:04.819Z,53.74
2018-12-25T19:49:10.504Z,53.23
2018-12-25T19:53:16.433Z,54.45
2018-12-25T19:57:22.135Z,53.93
2018-12-25T20:01:27.831Z,53.96
2018-12-25T20:06:25.808Z,54.16
2018-12-25T20:11:04.119Z,53.44
2018-12-25T20:15:46.780Z,56.02
2018-12-25T20:20:08.644Z,57.76
2018-12-25T20:24:31.733Z,56.08
2018-12-25T20:29:02.867Z,55.49
2018-12-25T20:33:25.990Z,55.33
2018-12-25T20:38:19.017Z,56.13
2018-12-25T20:42:49.703Z,56.20
2018-12-25T20:47:26.939Z,55.62
2018-12-25T20:51:37.290Z,56.09
2018-12-25T20:56:22.278Z,55.17
2018-12-25T21:01:03.914Z,54.95
2018-12-25T21:05:19.573Z,54.34
2018-12-25T21:16:47.960Z,54.60
2018-12-25T21:21:40.040Z,54.33
2018-12-25T21:26:39.504Z,54.47
2018-12-25T21:30:51.535Z,53.54
2018-12-25T21:35:48.479Z,53.18
2018-12-25T21:39:54.479Z,52.96
2018-12-25T21:44:00.428Z,53.77
2018-12-25T21:48:06.238Z,54.10
2018-12-25T21:52:12.107Z,53.58
2018-12-25T21:56:17.883Z,53.05
2018-12-25T22:00:50.979Z,53.80
2018-12-25T22:04:56.971Z,53.57
2018-12-25T22:09:02.781Z,53.38
2018-12-25T22:13:08.466Z,53.37
2018-12-25T22:17:14.175Z,52.89
2018-12-25T22:21:49.573Z,52.64
2018-12-25T22:25:55.344Z,52.11
2018-12-25T22:30:01.334Z,52.16
2018-12-25T22:34:24.884Z,51.51
2018-12-25T22:38:30.558Z,52.87
2018-12-25T22:42:36.250Z,52.98
2018-12-25T22:46:51.103Z,52.52
2018-12-25T22:50:56.840Z,52.77
2018-12-25T22:55:02.513Z,52.17
2018-12-25T22:59:08.224Z,51.51
2018-12-25T23:03:49.373Z,52.35
2018-12-25T23:07:55.120Z,52.25
2018-12-25T23:12:01.800Z,51.79
2018-12-25T23:16:08.103Z,51.53
2018-12-25T23:20:14.826Z,51.83
2018-12-25T23:24:20.577Z,51.42
2018-12-25T23:28:26.369Z,52.24
2018-12-25T23:32:32.059Z,51.53
2018-12-25T23:36:37.746Z,51.55
2018-12-25T23:40:43.437Z,52.53
2018-12-25T23:44:49.118Z,52.45
2018-12-25T23:48:54.807Z,52.19
2018-12-25T23:53:00.631Z,52.74
2018-12-25T23:57:06.449Z,52.76
